createdAt,value
2022-09-15T00:00:13.859Z,21.40
2022-09-15T00:05:19.034Z,21.40
2022-09-15T00:10:22.100Z,21.50
2022-09-15T00:15:25.360Z,21.40
2022-09-15T00:20:29.565Z,21.40
2022-09-15T00:25:32.531Z,21.40
2022-09-15T00:30:35.399Z,21.50
2022-09-15T00:35:40.712Z,21.60
2022-09-15T00:40:48.465Z,21.50
2022-09-15T00:45:52.920Z,21.40
2022-09-15T00:50:58.863Z,21.40
2022-09-15T00:56:04.475Z,21.40
2022-09-15T01:01:09.347Z,21.40
2022-09-15T01:06:19.078Z,21.50
2022-09-15T01:11:22.210Z,21.30
2022-09-15T01:16:32.572Z,21.30
2022-09-15T01:21:43.206Z,21.10
2022-09-15T01:27:24.184Z,21.10
2022-09-15T01:32:54.794Z,21.00
2022-09-15T01:38:03.452Z,21.00
2022-09-15T01:43:09.443Z,20.90
2022-09-15T01:48:14.124Z,20.80
2022-09-15T01:53:19.876Z,20.90
2022-09-15T01:58:23.018Z,20.80
2022-09-15T02:03:33.702Z,20.80
2022-09-15T02:08:44.832Z,20.70
2022-09-15T02:13:48.869Z,20.70
2022-09-15T02:19:16.433Z,20.80
2022-09-15T02:24:23.143Z,20.70
2022-09-15T02:29:28.647Z,20.70
2022-09-15T02:34:37.503Z,20.70
2022-09-15T02:39:44.617Z,20.70
2022-09-15T02:44:47.473Z,20.70
2022-09-15T02:49:51.740Z,20.80
2022-09-15T02:54:54.653Z,20.80
2022-09-15T03:00:17.004Z,20.80
2022-09-15T03:05:23.313Z,20.90
2022-09-15T03:10:27.169Z,21.00
2022-09-15T03:15:30.122Z,20.90
2022-09-15T03:20:34.311Z,20.80
2022-09-15T03:25:37.565Z,20.80
2022-09-15T03:30:40.582Z,20.70
2022-09-15T03:35:47.004Z,20.70
2022-09-15T03:41:01.525Z,20.80
2022-09-15T03:46:05.948Z,20.70
2022-09-15T03:51:11.269Z,20.70
2022-09-15T03:56:22.295Z,20.70
2022-09-15T04:01:25.858Z,20.60
2022-09-15T04:06:30.178Z,20.70
2022-09-15T04:11:33.397Z,20.70
2022-09-15T04:16:36.489Z,20.50
2022-09-15T04:21:40.732Z,20.50
2022-09-15T04:26:44.603Z,20.50
2022-09-15T04:31:48.197Z,20.50
2022-09-15T04:36:52.450Z,20.50
2022-09-15T04:41:55.461Z,20.40
2022-09-15T04:46:58.415Z,20.40
2022-09-15T04:52:06.615Z,20.50
2022-09-15T04:57:12.006Z,20.50
2022-09-15T05:02:14.895Z,20.50
2022-09-15T05:07:19.403Z,20.50
2022-09-15T05:12:22.292Z,20.50
2022-09-15T05:17:26.835Z,20.50
2022-09-15T05:22:32.540Z,20.50
2022-09-15T05:27:35.463Z,20.50
2022-09-15T05:32:38.432Z,20.40
2022-09-15T05:37:42.599Z,20.50
2022-09-15T05:42:45.437Z,20.50
2022-09-15T05:47:48.301Z,20.50
2022-09-15T05:52:54.101Z,20.40
2022-09-15T05:57:57.392Z,20.30
2022-09-15T06:03:00.634Z,20.30
2022-09-15T06:08:05.012Z,20.40
2022-09-15T06:13:07.886Z,20.40
2022-09-15T06:18:10.739Z,20.50
2022-09-15T06:23:15.011Z,20.40
2022-09-15T06:28:18.726Z,20.40
2022-09-15T06:33:21.577Z,20.40
2022-09-15T06:38:25.768Z,20.30
2022-09-15T06:43:28.626Z,20.30
2022-09-15T06:48:32.608Z,20.40
2022-09-15T06:53:38.504Z,20.40
2022-09-15T06:58:43.874Z,20.30
2022-09-15T07:03:47.329Z,20.20
2022-09-15T07:08:53.844Z,20.20
2022-09-15T07:13:56.897Z,20.20
2022-09-15T07:19:01.940Z,20.20
2022-09-15T07:24:07.772Z,20.20
2022-09-15T07:29:10.972Z,20.30
2022-09-15T07:34:13.898Z,20.20
2022-09-15T07:39:18.140Z,20.20
2022-09-15T07:44:20.980Z,20.30
2022-09-15T07:49:23.806Z,20.10
2022-09-15T07:54:28.005Z,20.10
2022-09-15T07:59:31.144Z,20.10
2022-09-15T08:04:34.028Z,20.20
2022-09-15T08:09:39.740Z,20.20
2022-09-15T08:14:42.605Z,20.20
2022-09-15T08:19:45.880Z,20.20
2022-09-15T08:24:50.448Z,20.10
2022-09-15T08:29:53.341Z,20.30
2022-09-15T08:34:56.334Z,20.30
2022-09-15T08:40:00.585Z,20.40
2022-09-15T08:45:09.435Z,20.50
2022-09-15T08:50:20.524Z,20.40
2022-09-15T08:55:38.394Z,20.40
2022-09-15T09:00:41.843Z,20.40
2022-09-15T09:05:54.200Z,20.40
2022-09-15T09:11:05.754Z,20.40
2022-09-15T09:16:28.289Z,20.40
2022-09-15T09:21:34.068Z,20.40
2022-09-15T09:26:39.542Z,20.50
2022-09-15T09:31:44.134Z,20.50
2022-09-15T09:36:47.254Z,20.60
2022-09-15T09:41:51.494Z,20.60
2022-09-15T09:46:54.351Z,20.50
2022-09-15T09:52:00.056Z,20.50
2022-09-15T09:57:27.980Z,20.60
2022-09-15T10:02:31.300Z,20.50
2022-09-15T10:07:35.671Z,20.10
2022-09-15T10:12:42.619Z,18.90
2022-09-15T10:17:47.892Z,18.00
2022-09-15T10:22:51.306Z,18.30
2022-09-15T10:28:11.808Z,18.20
2022-09-15T10:33:25.279Z,18.00
2022-09-15T10:38:35.365Z,18.10
2022-09-15T10:43:47.854Z,18.00
2022-09-15T10:49:06.038Z,18.00
2022-09-15T10:54:28.788Z,17.60
2022-09-15T10:59:43.409Z,17.50
2022-09-15T11:05:01.141Z,17.30
2022-09-15T11:10:12.119Z,17.50
2022-09-15T11:15:32.411Z,17.60
2022-09-15T11:21:06.107Z,17.80
2022-09-15T11:26:14.494Z,17.80
2022-09-15T11:31:22.972Z,18.00
2022-09-15T11:36:32.752Z,18.00
2022-09-15T11:41:39.234Z,18.10
2022-09-15T11:47:04.120Z,18.20
2022-09-15T11:52:15.533Z,18.20
2022-09-15T11:57:22.889Z,18.20
2022-09-15T12:02:32.644Z,18.40
2022-09-15T12:07:41.717Z,18.30
2022-09-15T12:12:46.611Z,18.50
2022-09-15T12:18:03.555Z,18.60
2022-09-15T12:23:22.762Z,18.60
2022-09-15T12:28:40.356Z,18.70
2022-09-15T12:33:54.598Z,18.60
2022-09-15T12:38:57.955Z,18.80
2022-09-15T12:44:17.313Z,18.30
2022-09-15T12:49:29.390Z,18.50
2022-09-15T12:54:35.072Z,18.50
2022-09-15T12:59:37.917Z,18.70
2022-09-15T13:04:55.682Z,18.60
2022-09-15T13:10:01.291Z,18.80
2022-09-15T13:15:08.660Z,18.90
2022-09-15T13:20:19.348Z,18.90
2022-09-15T13:25:28.658Z,19.10
2022-09-15T13:30:43.763Z,19.20
2022-09-15T13:36:14.071Z,19.50
2022-09-15T13:41:40.096Z,19.60
2022-09-15T13:46:54.269Z,19.60
2022-09-15T13:52:04.126Z,19.70
2022-09-15T13:57:07.086Z,19.70
2022-09-15T14:02:12.089Z,19.60
2022-09-15T14:07:23.955Z,20.10
2022-09-15T14:12:26.946Z,20.00
2022-09-15T14:17:44.944Z,20.20
2022-09-15T14:22:52.046Z,20.40
2022-09-15T14:27:58.199Z,20.40
2022-09-15T14:33:04.073Z,20.30
2022-09-15T14:38:20.062Z,20.60
2022-09-15T14:43:28.086Z,20.70
2022-09-15T14:48:34.501Z,20.80
2022-09-15T14:53:42.568Z,20.90
2022-09-15T14:58:55.369Z,20.90
2022-09-15T15:04:10.256Z,20.60
2022-09-15T15:09:26.228Z,21.00
2022-09-15T15:14:30.860Z,21.20
2022-09-15T15:20:12.871Z,21.30
2022-09-15T15:25:27.563Z,21.30
2022-09-15T15:30:46.697Z,21.40
2022-09-15T15:36:05.959Z,21.40
2022-09-15T15:41:19.985Z,21.30
2022-09-15T15:46:49.235Z,21.50
2022-09-15T15:52:10.788Z,21.50
2022-09-15T15:57:33.106Z,21.60
2022-09-15T16:02:36.288Z,21.60
2022-09-15T16:07:42.632Z,21.60
2022-09-15T16:12:48.061Z,21.70
2022-09-15T16:17:51.016Z,21.80
2022-09-15T16:22:56.141Z,21.80
2022-09-15T16:28:01.058Z,21.80
2022-09-15T16:33:11.162Z,21.70
2022-09-15T16:38:33.534Z,21.70
2022-09-15T16:43:37.824Z,21.60
2022-09-15T16:48:42.788Z,21.50
2022-09-15T16:53:47.528Z,21.40
2022-09-15T16:58:58.870Z,21.40
2022-09-15T17:04:06.232Z,21.30
2022-09-15T17:09:09.183Z,21.20
2022-09-15T17:14:17.870Z,21.10
2022-09-15T17:19:20.866Z,21.00
2022-09-15T17:24:40.990Z,21.00
2022-09-15T17:29:45.229Z,20.90
2022-09-15T17:34:48.161Z,20.70
2022-09-15T17:39:52.742Z,20.60
2022-09-15T17:45:01.169Z,20.70
2022-09-15T17:50:04.209Z,20.70
2022-09-15T17:55:16.992Z,20.50
2022-09-15T18:00:23.189Z,20.40
2022-09-15T18:05:56.659Z,20.50
2022-09-15T18:11:00.228Z,20.80
2022-09-15T18:16:07.769Z,20.50
2022-09-15T18:21:21.351Z,20.50
2022-09-15T18:26:26.500Z,20.50
2022-09-15T18:31:31.363Z,20.40
2022-09-15T18:36:34.346Z,20.40
2022-09-15T18:41:38.716Z,20.20
2022-09-15T18:46:44.205Z,20.20
2022-09-15T18:51:51.579Z,20.20
2022-09-15T18:57:03.258Z,20.30
2022-09-15T19:02:07.851Z,20.20
2022-09-15T19:07:14.907Z,19.90
2022-09-15T19:12:18.042Z,19.90
2022-09-15T19:17:22.442Z,19.90
2022-09-15T19:22:25.416Z,20.00
2022-09-15T19:27:28.810Z,19.90
2022-09-15T19:32:34.185Z,19.90
2022-09-15T19:37:46.444Z,19.90
2022-09-15T19:42:51.903Z,20.00
2022-09-15T19:47:56.419Z,19.90
2022-09-15T19:52:59.803Z,19.70
2022-09-15T19:58:04.758Z,19.90
2022-09-15T20:03:09.495Z,19.80
2022-09-15T20:08:12.382Z,19.70
2022-09-15T20:13:16.704Z,19.60
2022-09-15T20:18:20.988Z,19.60
2022-09-15T20:23:25.274Z,19.60
2022-09-15T20:28:29.256Z,19.50
2022-09-15T20:33:34.883Z,19.50
2022-09-15T20:38:38.877Z,19.50
2022-09-15T20:43:43.090Z,19.50
2022-09-15T20:48:47.631Z,19.20
2022-09-15T20:53:52.404Z,19.30
2022-09-15T20:58:57.713Z,19.10
2022-09-15T21:04:02.138Z,19.20
2022-09-15T21:09:06.166Z,19.20
2022-09-15T21:14:24.481Z,19.10
2022-09-15T21:19:28.888Z,19.10
2022-09-15T21:24:31.763Z,19.00
2022-09-15T21:29:34.901Z,18.90
2022-09-15T21:34:39.184Z,18.90
2022-09-15T21:39:42.070Z,18.80
2022-09-15T21:44:45.194Z,18.70
2022-09-15T21:49:50.753Z,18.70
2022-09-15T21:54:54.259Z,18.60
2022-09-15T21:59:57.180Z,18.50
2022-09-15T22:05:01.415Z,18.60
2022-09-15T22:10:04.605Z,18.70
2022-09-15T22:15:08.493Z,18.80
2022-09-15T22:20:13.017Z,18.70
2022-09-15T22:25:21.145Z,18.90
2022-09-15T22:30:24.874Z,18.80
2022-09-15T22:35:29.131Z,18.70
2022-09-15T22:40:32.115Z,18.80
2022-09-15T22:45:35.104Z,18.60
2022-09-15T22:50:39.494Z,18.60
2022-09-15T22:55:53.548Z,18.70
2022-09-15T23:01:04.120Z,18.80
2022-09-15T23:06:09.222Z,18.80
2022-09-15T23:11:14.417Z,18.80
2022-09-15T23:16:17.682Z,18.70
2022-09-15T23:21:22.218Z,18.70
2022-09-15T23:26:25.916Z,18.70
2022-09-15T23:31:28.896Z,18.80
2022-09-15T23:36:33.140Z,18.80
2022-09-15T23:41:36.825Z,18.60
2022-09-15T23:46:39.796Z,18.50
2022-09-15T23:51:44.438Z,18.40
2022-09-15T23:56:47.336Z,18.50
